Time;durP1;ratioP1;P1;durP2;ratioP2;P2;SDS_P1;SDS_P2;PMS_P1;PMS_P2;Temp;Humidity;BMP_temperature;BMP_pressure;BME280_temperature;BME280_humidity;BME280_pressure;Samples;Min_cycle;Max_cycle;Signal;HPM_P1;HPM_P2
2023/08/01 00:01:52;;;;;;;4.13;3.83;;;;;;;;;;5091692;28;20200;-84
2023/08/01 00:04:18;;;;;;;3.83;3.53;;;;;;;;;;5091828;28;20204;-84
2023/08/01 00:06:45;;;;;;;3.13;2.93;;;;;;;;;;5091968;28;20226;-84
2023/08/01 00:09:12;;;;;;;3.60;3.30;;;;;;;;;;5091694;28;20211;-84
2023/08/01 00:11:39;;;;;;;4.00;3.70;;;;;;;;;;5091968;28;20192;-84
2023/08/01 00:14:05;;;;;;;5.87;3.57;;;;;;;;;;5104293;28;20203;-84
2023/08/01 00:16:34;;;;;;;3.13;2.93;;;;;;;;;;5094606;28;20200;-84
2023/08/01 00:19:01;;;;;;;3.10;2.90;;;;;;;;;;5091627;28;20207;-84
2023/08/01 00:21:30;;;;;;;3.30;3.00;;;;;;;;;;5091792;28;20195;-84
2023/08/01 00:23:57;;;;;;;3.40;3.00;;;;;;;;;;5091383;28;20207;-84
2023/08/01 00:26:24;;;;;;;7.93;2.80;;;;;;;;;;5103102;28;20689;-84
2023/08/01 00:28:50;;;;;;;4.33;4.00;;;;;;;;;;5111810;28;20232;-84
2023/08/01 00:31:17;;;;;;;8.90;8.10;;;;;;;;;;5112804;28;20199;-84
2023/08/01 00:33:46;;;;;;;8.10;7.40;;;;;;;;;;5096026;28;20207;-84
2023/08/01 00:36:13;;;;;;;7.97;7.27;;;;;;;;;;5091336;28;20200;-84
2023/08/01 00:38:41;;;;;;;7.07;6.47;;;;;;;;;;5091516;28;20205;-84
2023/08/01 00:41:08;;;;;;;5.60;5.10;;;;;;;;;;5091532;28;20204;-84
2023/08/01 00:43:35;;;;;;;5.23;4.83;;;;;;;;;;5091449;28;20207;-84
2023/08/01 00:46:04;;;;;;;4.93;4.33;;;;;;;;;;5091710;28;20261;-84
2023/08/01 00:48:31;;;;;;;4.33;4.03;;;;;;;;;;5091203;28;20662;-84
2023/08/01 00:51:02;;;;;;;4.07;3.77;;;;;;;;;;5091277;28;20658;-84
2023/08/01 00:53:30;;;;;;;4.00;3.70;;;;;;;;;;5091537;28;20220;-84
2023/08/01 00:55:57;;;;;;;4.17;3.77;;;;;;;;;;5089707;28;20678;-84
2023/08/01 00:58:24;;;;;;;3.17;2.90;;;;;;;;;;5091686;28;20198;-84
2023/08/01 01:00:51;;;;;;;4.10;3.80;;;;;;;;;;5094659;28;20192;-84
2023/08/01 01:03:18;;;;;;;4.00;3.70;;;;;;;;;;5095732;28;20196;-84
2023/08/01 01:05:50;;;;;;;3.37;3.17;;;;;;;;;;5095501;28;20207;-84
2023/08/01 01:08:19;;;;;;;3.27;3.07;;;;;;;;;;5094292;28;20196;-84
2023/08/01 01:10:45;;;;;;;4.73;3.83;;;;;;;;;;5095226;28;20192;-84
2023/08/01 01:13:12;;;;;;;3.60;3.30;;;;;;;;;;5095198;28;20196;-84
2023/08/01 01:15:39;;;;;;;3.00;2.80;;;;;;;;;;5094922;28;20200;-84
2023/08/01 01:18:06;;;;;;;5.73;3.10;;;;;;;;;;5094596;28;20200;-84
2023/08/01 01:20:36;;;;;;;2.93;2.73;;;;;;;;;;5094354;28;20196;-83
2023/08/01 01:23:04;;;;;;;3.30;3.10;;;;;;;;;;5094583;28;20287;-83
2023/08/01 01:25:32;;;;;;;3.00;2.80;;;;;;;;;;5095137;28;20299;-84
2023/08/01 01:27:59;;;;;;;3.30;3.00;;;;;;;;;;5094233;28;20224;-84
2023/08/01 01:30:26;;;;;;;3.83;3.33;;;;;;;;;;5094390;28;20192;-84
2023/08/01 01:32:53;;;;;;;3.80;3.50;;;;;;;;;;5094788;28;20196;-84
2023/08/01 01:35:20;;;;;;;7.73;3.63;;;;;;;;;;5094754;28;20196;-84
2023/08/01 01:37:48;;;;;;;2.80;2.60;;;;;;;;;;5094555;28;20204;-83
2023/08/01 01:40:15;;;;;;;3.03;2.57;;;;;;;;;;5092753;28;20203;-84
2023/08/01 01:42:42;;;;;;;3.00;2.80;;;;;;;;;;5094885;28;20257;-84
2023/08/01 01:45:10;;;;;;;3.37;3.17;;;;;;;;;;5094557;28;20200;-84
2023/08/01 01:47:37;;;;;;;3.47;3.23;;;;;;;;;;5093864;28;20220;-84
2023/08/01 01:50:05;;;;;;;3.43;3.13;;;;;;;;;;5094576;28;20235;-84
2023/08/01 01:52:32;;;;;;;3.17;2.97;;;;;;;;;;5094712;28;20307;-83
2023/08/01 01:55:00;;;;;;;3.40;3.10;;;;;;;;;;5095034;28;20574;-84
2023/08/01 01:57:27;;;;;;;3.67;3.37;;;;;;;;;;5114587;28;20248;-84
2023/08/01 01:59:54;;;;;;;3.50;3.20;;;;;;;;;;5114042;28;20625;-84
2023/08/01 02:02:21;;;;;;;3.57;3.27;;;;;;;;;;5114126;28;20199;-84
2023/08/01 02:04:48;;;;;;;3.50;3.20;;;;;;;;;;5114568;28;20199;-84
2023/08/01 02:07:15;;;;;;;3.90;2.87;;;;;;;;;;5113934;28;20219;-84
2023/08/01 02:09:42;;;;;;;3.10;2.90;;;;;;;;;;5113659;28;20196;-84
2023/08/01 02:12:13;;;;;;;3.10;2.80;;;;;;;;;;5114295;28;20199;-84
2023/08/01 02:14:40;;;;;;;4.00;3.17;;;;;;;;;;5113879;28;20202;-84
2023/08/01 02:17:07;;;;;;;3.50;3.20;;;;;;;;;;5114238;28;20206;-84
2023/08/01 02:19:34;;;;;;;4.37;3.97;;;;;;;;;;5112165;28;20196;-84
2023/08/01 02:22:01;;;;;;;4.47;4.07;;;;;;;;;;5114064;28;20211;-84
2023/08/01 02:24:28;;;;;;;4.63;4.23;;;;;;;;;;5113683;28;20195;-84
2023/08/01 02:26:54;;;;;;;3.97;3.67;;;;;;;;;;5113623;28;20226;-84
2023/08/01 02:29:22;;;;;;;5.17;3.63;;;;;;;;;;5113596;28;20207;-83
2023/08/01 02:31:49;;;;;;;3.83;3.53;;;;;;;;;;5103902;28;20259;-84
2023/08/01 02:34:16;;;;;;;4.70;4.20;;;;;;;;;;5104231;28;20206;-84
2023/08/01 02:36:43;;;;;;;3.40;3.20;;;;;;;;;;5114085;28;20199;-84
2023/08/01 02:39:10;;;;;;;3.17;2.87;;;;;;;;;;5113782;28;20771;-84
2023/08/01 02:41:36;;;;;;;3.47;3.20;;;;;;;;;;5114191;28;20199;-84
2023/08/01 02:44:03;;;;;;;3.30;3.10;;;;;;;;;;5113455;28;20196;-84
2023/08/01 02:46:31;;;;;;;4.73;3.00;;;;;;;;;;5111604;28;20565;-84
2023/08/01 02:48:58;;;;;;;3.27;3.03;;;;;;;;;;5113338;28;20191;-84
2023/08/01 02:51:25;;;;;;;3.57;3.00;;;;;;;;;;5113408;28;20200;-84
2023/08/01 02:53:52;;;;;;;3.80;3.50;;;;;;;;;;5113067;28;20230;-83
2023/08/01 02:56:19;;;;;;;2.80;2.60;;;;;;;;;;5113079;28;20192;-83
2023/08/01 02:58:45;;;;;;;3.33;2.60;;;;;;;;;;5113232;28;20199;-83
2023/08/01 03:01:13;;;;;;;2.87;2.67;;;;;;;;;;5113977;28;20207;-83
2023/08/01 03:03:41;;;;;;;3.10;2.90;;;;;;;;;;5112955;28;20259;-83
2023/08/01 03:06:08;;;;;;;4.63;3.03;;;;;;;;;;5113132;28;20195;-83
2023/08/01 03:08:35;;;;;;;4.07;3.33;;;;;;;;;;5113661;28;20309;-83
2023/08/01 03:11:02;;;;;;;3.07;2.87;;;;;;;;;;5113054;28;20203;-83
2023/08/01 03:13:29;;;;;;;3.97;3.20;;;;;;;;;;5101342;28;20566;-83
2023/08/01 03:15:56;;;;;;;3.70;3.40;;;;;;;;;;5113229;28;20195;-84
2023/08/01 03:18:22;;;;;;;3.83;3.53;;;;;;;;;;5112521;28;20198;-83
2023/08/01 03:20:51;;;;;;;3.30;3.00;;;;;;;;;;5112667;28;20207;-83
2023/08/01 03:23:18;;;;;;;3.80;3.50;;;;;;;;;;5112430;28;20218;-83
2023/08/01 03:25:45;;;;;;;4.10;3.70;;;;;;;;;;5112541;28;20200;-83
2023/08/01 03:28:11;;;;;;;5.70;3.90;;;;;;;;;;5112765;28;20219;-84
2023/08/01 03:30:39;;;;;;;3.83;3.53;;;;;;;;;;5112365;28;20199;-84
2023/08/01 03:33:06;;;;;;;5.27;3.30;;;;;;;;;;5112414;28;20203;-84
2023/08/01 03:35:32;;;;;;;3.40;3.20;;;;;;;;;;5091421;28;20245;-85
2023/08/01 03:38:00;;;;;;;3.30;3.10;;;;;;;;;;5092271;28;20211;-80
2023/08/01 03:40:27;;;;;;;3.27;3.07;;;;;;;;;;5092007;28;20739;-82
2023/08/01 03:42:54;;;;;;;3.53;3.23;;;;;;;;;;5092419;28;20196;-87
2023/08/01 03:45:21;;;;;;;3.60;3.30;;;;;;;;;;5072906;28;20192;-85
2023/08/01 03:47:48;;;;;;;3.27;3.03;;;;;;;;;;5091941;28;20223;-83
2023/08/01 03:50:15;;;;;;;3.93;3.63;;;;;;;;;;5092579;28;20336;-78
2023/08/01 03:52:42;;;;;;;5.83;3.17;;;;;;;;;;5092155;28;20698;-77
2023/08/01 03:55:10;;;;;;;4.63;3.63;;;;;;;;;;5091851;28;20225;-78
2023/08/01 03:57:38;;;;;;;3.70;3.40;;;;;;;;;;5091709;28;20204;-78
2023/08/01 04:00:13;;;;;;;3.53;3.30;;;;;;;;;;5091935;28;20192;-78
2023/08/01 04:02:40;;;;;;;3.47;2.83;;;;;;;;;;5092206;28;20196;-78
2023/08/01 04:05:08;;;;;;;4.43;3.20;;;;;;;;;;5109313;28;20199;-78
2023/08/01 04:07:35;;;;;;;6.17;3.03;;;;;;;;;;5111970;28;20211;-78
2023/08/01 04:10:02;;;;;;;3.50;2.60;;;;;;;;;;5112026;28;20199;-78
2023/08/01 04:12:31;;;;;;;3.37;3.13;;;;;;;;;;5112904;28;20195;-77
2023/08/01 04:14:58;;;;;;;3.40;3.20;;;;;;;;;;5111938;28;20666;-78
2023/08/01 04:17:25;;;;;;;3.50;3.30;;;;;;;;;;5100760;28;20196;-77
2023/08/01 04:19:52;;;;;;;3.03;2.73;;;;;;;;;;5091574;28;20192;-77
2023/08/01 04:22:19;;;;;;;3.53;3.23;;;;;;;;;;5092478;28;20562;-77
2023/08/01 04:24:45;;;;;;;2.90;2.70;;;;;;;;;;5091671;28;20196;-78
2023/08/01 04:27:12;;;;;;;3.60;3.30;;;;;;;;;;5091846;28;20203;-77
2023/08/01 04:29:40;;;;;;;3.40;3.10;;;;;;;;;;5090125;28;20200;-78
2023/08/01 04:32:08;;;;;;;2.90;2.70;;;;;;;;;;5091760;28;20207;-78
2023/08/01 04:34:35;;;;;;;3.17;2.93;;;;;;;;;;5095688;28;20197;-78
2023/08/01 04:37:02;;;;;;;3.30;3.10;;;;;;;;;;5095383;28;20200;-78
2023/08/01 04:39:28;;;;;;;3.53;3.20;;;;;;;;;;5095631;28;20282;-78
2023/08/01 04:41:55;;;;;;;5.07;4.07;;;;;;;;;;5101092;28;20195;-78
2023/08/01 04:44:22;;;;;;;3.77;2.97;;;;;;;;;;5113968;28;20256;-78
2023/08/01 04:46:50;;;;;;;3.37;3.10;;;;;;;;;;5095026;28;20675;-78
2023/08/01 04:49:19;;;;;;;6.90;3.30;;;;;;;;;;5107130;28;20219;-78
2023/08/01 04:51:46;;;;;;;9.57;3.97;;;;;;;;;;5099524;28;20188;-78
2023/08/01 04:54:13;;;;;;;3.90;3.50;;;;;;;;;;5100043;28;20204;-78
2023/08/01 04:56:40;;;;;;;6.47;3.13;;;;;;;;;;5114137;28;20198;-79
2023/08/01 04:59:06;;;;;;;3.87;3.53;;;;;;;;;;5114187;28;20658;-78
2023/08/01 05:01:33;;;;;;;3.87;3.30;;;;;;;;;;5114611;28;20195;-78
2023/08/01 05:04:01;;;;;;;3.10;2.90;;;;;;;;;;5099363;28;20200;-78
2023/08/01 05:06:28;;;;;;;3.93;3.53;;;;;;;;;;5103010;28;20200;-78
2023/08/01 05:08:55;;;;;;;5.97;2.90;;;;;;;;;;5100259;28;20702;-78
2023/08/01 05:11:22;;;;;;;15.67;4.03;;;;;;;;;;5107137;28;20200;-78
2023/08/01 05:13:49;;;;;;;5.83;3.20;;;;;;;;;;5094786;28;20195;-78
2023/08/01 05:16:16;;;;;;;13.13;4.03;;;;;;;;;;5104779;28;20197;-78
2023/08/01 05:18:43;;;;;;;17.57;3.90;;;;;;;;;;5108226;28;20195;-78
2023/08/01 05:21:11;;;;;;;7.97;3.60;;;;;;;;;;5102961;28;20210;-78
2023/08/01 05:23:38;;;;;;;18.00;3.30;;;;;;;;;;5112555;28;20746;-78
2023/08/01 05:26:04;;;;;;;10.43;3.57;;;;;;;;;;5103545;28;20627;-78
2023/08/01 05:28:31;;;;;;;5.73;2.93;;;;;;;;;;5111281;28;20216;-78
2023/08/01 05:30:58;;;;;;;2.90;2.37;;;;;;;;;;5093875;28;20196;-78
2023/08/01 05:33:27;;;;;;;4.33;2.83;;;;;;;;;;5109933;28;20204;-78
2023/08/01 05:35:54;;;;;;;3.10;2.90;;;;;;;;;;5105712;28;20196;-78
2023/08/01 05:38:22;;;;;;;2.60;2.40;;;;;;;;;;5109830;28;20199;-78
2023/08/01 05:40:49;;;;;;;2.87;2.67;;;;;;;;;;5113617;28;20203;-78
2023/08/01 05:43:16;;;;;;;3.30;3.00;;;;;;;;;;5095505;28;20184;-78
2023/08/01 05:45:42;;;;;;;2.60;2.40;;;;;;;;;;5104221;28;20206;-78
2023/08/01 05:48:10;;;;;;;2.53;2.33;;;;;;;;;;5100009;28;20218;-78
2023/08/01 05:50:38;;;;;;;3.40;3.10;;;;;;;;;;5101431;28;20246;-78
2023/08/01 05:53:05;;;;;;;3.90;2.50;;;;;;;;;;5109817;28;20280;-78
2023/08/01 05:55:33;;;;;;;2.80;2.40;;;;;;;;;;5101177;28;20197;-78
2023/08/01 05:58:00;;;;;;;2.77;2.57;;;;;;;;;;5104126;28;20200;-78
2023/08/01 06:00:27;;;;;;;2.67;2.47;;;;;;;;;;5105324;28;20207;-78
2023/08/01 06:02:54;;;;;;;3.67;2.60;;;;;;;;;;5100291;28;20203;-78
2023/08/01 06:05:21;;;;;;;2.60;2.40;;;;;;;;;;5113757;28;20658;-78
2023/08/01 06:07:47;;;;;;;2.73;2.07;;;;;;;;;;5092721;28;20212;-78
2023/08/01 06:10:14;;;;;;;4.23;2.60;;;;;;;;;;5092632;28;20200;-78
2023/08/01 06:12:42;;;;;;;3.63;2.20;;;;;;;;;;5100120;28;20244;-78
2023/08/01 06:15:10;;;;;;;2.50;2.27;;;;;;;;;;5112546;28;20665;-78
2023/08/01 06:17:36;;;;;;;3.00;2.33;;;;;;;;;;5097892;28;20187;-78
2023/08/01 06:20:05;;;;;;;2.33;2.10;;;;;;;;;;5098954;28;20192;-78
2023/08/01 06:22:31;;;;;;;5.80;2.90;;;;;;;;;;5113374;28;20210;-78
2023/08/01 06:24:58;;;;;;;4.70;3.10;;;;;;;;;;5113009;28;20195;-78
2023/08/01 06:27:26;;;;;;;3.03;2.57;;;;;;;;;;5113108;28;20187;-78
2023/08/01 06:29:54;;;;;;;2.70;2.50;;;;;;;;;;5097050;28;20642;-78
2023/08/01 06:32:21;;;;;;;6.33;2.70;;;;;;;;;;5093338;28;20208;-78
2023/08/01 06:34:47;;;;;;;6.27;2.50;;;;;;;;;;5093101;28;20201;-79
2023/08/01 06:37:14;;;;;;;3.57;2.83;;;;;;;;;;5101801;28;20723;-78
2023/08/01 06:39:41;;;;;;;2.47;2.30;;;;;;;;;;5112174;28;20683;-78
2023/08/01 06:42:07;;;;;;;2.70;2.50;;;;;;;;;;5112968;28;20574;-78
2023/08/01 06:44:34;;;;;;;3.70;3.10;;;;;;;;;;5099309;28;20658;-78
2023/08/01 06:47:03;;;;;;;3.77;2.70;;;;;;;;;;5103533;28;20618;-78
2023/08/01 06:49:29;;;;;;;2.93;2.50;;;;;;;;;;5105481;28;20220;-78
2023/08/01 06:51:56;;;;;;;2.60;2.37;;;;;;;;;;5092587;28;20239;-78
2023/08/01 06:54:23;;;;;;;3.07;2.77;;;;;;;;;;5094241;28;20192;-78
2023/08/01 06:56:50;;;;;;;2.17;1.97;;;;;;;;;;5100864;28;20686;-78
2023/08/01 06:59:16;;;;;;;3.20;2.20;;;;;;;;;;5105967;28;20207;-78
2023/08/01 07:01:44;;;;;;;2.67;2.40;;;;;;;;;;5092326;28;20192;-78
2023/08/01 07:04:12;;;;;;;2.90;2.70;;;;;;;;;;5109004;28;20275;-78
2023/08/01 07:06:39;;;;;;;4.17;2.43;;;;;;;;;;5101516;28;20199;-78
2023/08/01 07:09:06;;;;;;;3.10;2.20;;;;;;;;;;5103877;28;20236;-78
2023/08/01 07:11:33;;;;;;;4.27;2.80;;;;;;;;;;5103409;28;20214;-78
2023/08/01 07:14:00;;;;;;;4.80;2.50;;;;;;;;;;5097205;28;20719;-78
2023/08/01 07:16:28;;;;;;;2.60;2.40;;;;;;;;;;5112117;28;20207;-78
2023/08/01 07:18:56;;;;;;;2.80;2.50;;;;;;;;;;5105836;28;20563;-78
2023/08/01 07:21:24;;;;;;;2.60;2.40;;;;;;;;;;5104696;28;20200;-78
2023/08/01 07:23:52;;;;;;;3.17;2.20;;;;;;;;;;5099158;28;20662;-78
2023/08/01 07:26:20;;;;;;;2.80;2.40;;;;;;;;;;5101654;28;20269;-78
2023/08/01 07:28:47;;;;;;;1.90;1.80;;;;;;;;;;5091423;28;20223;-78
2023/08/01 07:31:13;;;;;;;2.20;2.00;;;;;;;;;;5104932;28;20195;-78
2023/08/01 07:33:40;;;;;;;3.33;2.33;;;;;;;;;;5104881;28;20188;-78
2023/08/01 07:36:07;;;;;;;2.60;2.40;;;;;;;;;;5104301;28;20232;-78
2023/08/01 07:38:35;;;;;;;2.45;2.25;;;;;;;;;;5099331;28;20626;-78
2023/08/01 07:41:03;;;;;;;1.90;1.80;;;;;;;;;;5096169;28;20200;-78
2023/08/01 07:43:30;;;;;;;2.47;2.27;;;;;;;;;;5097534;28;20227;-78
2023/08/01 07:45:57;;;;;;;2.47;2.25;;;;;;;;;;5111697;28;20199;-78
2023/08/01 07:48:24;;;;;;;2.15;2.00;;;;;;;;;;5111005;28;20233;-78
2023/08/01 07:50:52;;;;;;;2.93;2.67;;;;;;;;;;5097058;28;20203;-78
2023/08/01 07:53:19;;;;;;;2.43;2.23;;;;;;;;;;5102025;28;20224;-78
2023/08/01 07:55:47;;;;;;;2.60;2.40;;;;;;;;;;5091035;28;20299;-79
2023/08/01 07:58:14;;;;;;;2.50;2.30;;;;;;;;;;5090791;28;20204;-79
2023/08/01 08:00:40;;;;;;;2.50;2.30;;;;;;;;;;5104086;28;20198;-79
2023/08/01 08:03:08;;;;;;;2.70;2.50;;;;;;;;;;5099504;28;20207;-78
2023/08/01 08:05:38;;;;;;;2.50;2.30;;;;;;;;;;5109484;28;20680;-78
2023/08/01 08:08:05;;;;;;;2.73;2.53;;;;;;;;;;5091580;28;20200;-78
2023/08/01 08:10:32;;;;;;;2.17;2.03;;;;;;;;;;5098629;28;20187;-79
2023/08/01 08:13:00;;;;;;;2.57;2.37;;;;;;;;;;5105638;28;20196;-78
2023/08/01 08:15:27;;;;;;;3.78;2.70;;;;;;;;;;5098982;28;20272;-78
2023/08/01 08:17:54;;;;;;;2.70;2.50;;;;;;;;;;5104452;28;20736;-78
2023/08/01 08:20:21;;;;;;;3.17;2.88;;;;;;;;;;5099054;28;20199;-78
2023/08/01 08:22:47;;;;;;;5.10;3.97;;;;;;;;;;5115229;28;20195;-78
2023/08/01 08:25:14;;;;;;;4.30;3.78;;;;;;;;;;5100884;28;20202;-78
2023/08/01 08:27:41;;;;;;;4.00;3.70;;;;;;;;;;5115458;28;20565;-77
2023/08/01 08:30:10;;;;;;;4.88;4.47;;;;;;;;;;5115453;28;20230;-78
2023/08/01 08:32:37;;;;;;;7.35;5.97;;;;;;;;;;5114863;28;20203;-78
2023/08/01 08:35:05;;;;;;;5.40;5.00;;;;;;;;;;5099367;28;20195;-78
2023/08/01 08:37:32;;;;;;;4.28;3.97;;;;;;;;;;5114437;28;20195;-77
2023/08/01 08:39:59;;;;;;;6.18;4.22;;;;;;;;;;5108530;28;20587;-78
2023/08/01 08:42:27;;;;;;;6.13;5.45;;;;;;;;;;5107230;28;20589;-78
2023/08/01 08:44:56;;;;;;;7.10;6.50;;;;;;;;;;5114868;28;20662;-78
2023/08/01 08:47:27;;;;;;;6.30;5.05;;;;;;;;;;5100993;28;20287;-77
2023/08/01 08:49:56;;;;;;;6.20;5.70;;;;;;;;;;5094352;28;20212;-78
2023/08/01 08:52:24;;;;;;;6.75;5.40;;;;;;;;;;5094411;28;20259;-78
2023/08/01 08:54:51;;;;;;;6.05;5.47;;;;;;;;;;5094294;28;20620;-79
2023/08/01 08:57:19;;;;;;;6.25;5.65;;;;;;;;;;5094513;28;20211;-78
2023/08/01 08:59:47;;;;;;;7.50;6.38;;;;;;;;;;5094569;28;20266;-78
2023/08/01 09:02:16;;;;;;;6.70;6.07;;;;;;;;;;5109028;28;20199;-78
2023/08/01 09:04:44;;;;;;;6.18;5.70;;;;;;;;;;5106825;28;20203;-78
2023/08/01 09:07:12;;;;;;;6.75;6.15;;;;;;;;;;5096006;28;20192;-78
2023/08/01 09:09:40;;;;;;;6.20;5.70;;;;;;;;;;5104949;28;20247;-78
2023/08/01 09:12:09;;;;;;;6.85;6.25;;;;;;;;;;5096001;28;20197;-79
2023/08/01 09:14:36;;;;;;;6.93;6.03;;;;;;;;;;5105788;28;20203;-78
2023/08/01 09:17:09;;;;;;;8.10;6.40;;;;;;;;;;5109919;28;20214;-78
2023/08/01 09:19:36;;;;;;;6.43;5.82;;;;;;;;;;5113490;28;20198;-77
2023/08/01 09:22:11;;;;;;;7.22;6.53;;;;;;;;;;5096970;28;20204;-77
2023/08/01 09:24:38;;;;;;;7.15;6.55;;;;;;;;;;5106691;28;20638;-77
2023/08/01 09:27:05;;;;;;;6.35;5.85;;;;;;;;;;5100488;28;20203;-77
2023/08/01 09:29:32;;;;;;;7.75;6.95;;;;;;;;;;5101651;28;20289;-77
2023/08/01 09:31:59;;;;;;;6.47;5.90;;;;;;;;;;5099779;28;20207;-77
2023/08/01 09:34:28;;;;;;;6.88;6.28;;;;;;;;;;5100875;28;20201;-77
2023/08/01 09:36:59;;;;;;;7.30;6.70;;;;;;;;;;5106271;28;20189;-77
2023/08/01 09:39:29;;;;;;;6.18;5.68;;;;;;;;;;5105747;28;20199;-77
2023/08/01 09:41:57;;;;;;;7.05;6.45;;;;;;;;;;5101870;28;20195;-77
2023/08/01 09:44:24;;;;;;;6.68;5.28;;;;;;;;;;5100019;28;20196;-77
2023/08/01 09:46:57;;;;;;;5.53;5.13;;;;;;;;;;5107899;28;20196;-77
2023/08/01 09:49:24;;;;;;;6.72;6.15;;;;;;;;;;5095180;28;20273;-78
2023/08/01 09:51:51;;;;;;;7.00;6.40;;;;;;;;;;5104406;28;20203;-80
2023/08/01 09:54:20;;;;;;;7.10;5.50;;;;;;;;;;5107484;28;20203;-77
2023/08/01 09:56:50;;;;;;;6.05;5.55;;;;;;;;;;5102887;28;20657;-78
2023/08/01 09:59:20;;;;;;;7.72;5.63;;;;;;;;;;5111008;28;20704;-77
2023/08/01 10:01:50;;;;;;;6.07;5.57;;;;;;;;;;5093139;28;20207;-78
2023/08/01 10:04:19;;;;;;;5.68;5.07;;;;;;;;;;5111360;28;20191;-77
2023/08/01 10:06:49;;;;;;;5.30;4.90;;;;;;;;;;5100781;28;20573;-77
2023/08/01 10:09:19;;;;;;;6.75;5.70;;;;;;;;;;5092717;28;20598;-77
2023/08/01 10:11:48;;;;;;;6.50;5.90;;;;;;;;;;5106833;28;20199;-78
2023/08/01 10:14:15;;;;;;;5.72;5.22;;;;;;;;;;5113038;28;20195;-78
2023/08/01 10:16:43;;;;;;;6.10;5.60;;;;;;;;;;5113358;28;20204;-78
2023/08/01 10:19:11;;;;;;;5.68;5.18;;;;;;;;;;5112859;28;20206;-78
2023/08/01 10:21:38;;;;;;;5.78;5.28;;;;;;;;;;5112396;28;20279;-78
2023/08/01 10:24:07;;;;;;;6.35;5.72;;;;;;;;;;5113303;28;20282;-78
2023/08/01 10:26:33;;;;;;;5.30;4.90;;;;;;;;;;5100882;28;20575;-78
2023/08/01 10:29:02;;;;;;;5.47;5.07;;;;;;;;;;5092217;28;20192;-78
2023/08/01 10:31:29;;;;;;;6.00;5.50;;;;;;;;;;5104535;28;20256;-78
2023/08/01 10:34:05;;;;;;;6.15;5.65;;;;;;;;;;5092314;28;20194;-78
2023/08/01 10:36:32;;;;;;;5.95;5.38;;;;;;;;;;5105983;28;20210;-78
2023/08/01 10:39:01;;;;;;;5.90;5.40;;;;;;;;;;5102547;28;20191;-78
2023/08/01 10:41:29;;;;;;;5.43;5.03;;;;;;;;;;5098958;28;20587;-78
2023/08/01 10:44:07;;;;;;;5.53;5.03;;;;;;;;;;5102061;28;20192;-78
2023/08/01 10:46:50;;;;;;;5.75;5.10;;;;;;;;;;5106913;28;20221;-78
2023/08/01 10:49:18;;;;;;;11.07;6.00;;;;;;;;;;5091653;28;20222;-78
2023/08/01 10:51:45;;;;;;;5.57;5.07;;;;;;;;;;5100626;28;20194;-78
2023/08/01 10:54:22;;;;;;;5.85;5.35;;;;;;;;;;5100795;28;20199;-78
2023/08/01 10:56:50;;;;;;;5.90;5.40;;;;;;;;;;5103070;28;20578;-78
2023/08/01 10:59:19;;;;;;;6.18;5.60;;;;;;;;;;5108899;28;20198;-78
2023/08/01 11:01:48;;;;;;;5.50;5.00;;;;;;;;;;5101525;28;20207;-78
2023/08/01 11:04:15;;;;;;;5.72;5.32;;;;;;;;;;5095022;28;20192;-78
2023/08/01 11:06:46;;;;;;;5.03;4.63;;;;;;;;;;5100712;28;20630;-78
2023/08/01 11:09:18;;;;;;;5.88;5.47;;;;;;;;;;5110988;28;20206;-78
2023/08/01 11:11:45;;;;;;;5.50;5.10;;;;;;;;;;5098716;28;20253;-79
2023/08/01 11:14:13;;;;;;;5.65;5.15;;;;;;;;;;5104939;28;20192;-78
2023/08/01 11:16:42;;;;;;;5.45;5.03;;;;;;;;;;5105076;28;20291;-78
2023/08/01 11:19:20;;;;;;;5.35;5.00;;;;;;;;;;5111627;28;20202;-79
2023/08/01 11:21:47;;;;;;;5.32;4.93;;;;;;;;;;5112261;28;20227;-78
2023/08/01 11:24:14;;;;;;;5.00;4.70;;;;;;;;;;5112004;28;20187;-78
2023/08/01 11:26:42;;;;;;;5.57;5.05;;;;;;;;;;5112251;28;20198;-78
2023/08/01 11:29:10;;;;;;;5.00;4.47;;;;;;;;;;5102622;28;20616;-78
2023/08/01 11:31:37;;;;;;;4.93;4.53;;;;;;;;;;5107883;28;20196;-78
2023/08/01 11:34:08;;;;;;;4.95;4.55;;;;;;;;;;5110501;28;20199;-78
2023/08/01 11:36:35;;;;;;;6.82;4.95;;;;;;;;;;5107633;28;20654;-78
2023/08/01 11:39:02;;;;;;;5.07;4.68;;;;;;;;;;5091321;28;20261;-78
2023/08/01 11:41:29;;;;;;;5.78;5.13;;;;;;;;;;5091586;28;20204;-78
2023/08/01 11:43:56;;;;;;;4.80;4.45;;;;;;;;;;5090480;28;20654;-78
2023/08/01 11:46:23;;;;;;;5.80;5.30;;;;;;;;;;5104780;28;20196;-78
2023/08/01 11:48:51;;;;;;;5.15;4.72;;;;;;;;;;5091037;28;20574;-78
2023/08/01 11:51:21;;;;;;;5.47;4.85;;;;;;;;;;5104901;28;20304;-78
2023/08/01 11:53:48;;;;;;;5.63;5.13;;;;;;;;;;5102844;28;20227;-78
2023/08/01 11:56:23;;;;;;;5.13;4.72;;;;;;;;;;5106948;28;21602;-78
2023/08/01 11:58:50;;;;;;;4.07;3.78;;;;;;;;;;5090920;28;20196;-78
2023/08/01 12:01:17;;;;;;;4.78;4.38;;;;;;;;;;5110339;28;20222;-78
2023/08/01 12:03:45;;;;;;;5.60;5.20;;;;;;;;;;5098503;28;20567;-78
2023/08/01 12:06:13;;;;;;;5.22;4.63;;;;;;;;;;5104282;28;20203;-79
2023/08/01 12:08:42;;;;;;;5.15;4.65;;;;;;;;;;5104033;28;20203;-78
2023/08/01 12:11:23;;;;;;;6.68;4.75;;;;;;;;;;5111029;28;20306;-79
2023/08/01 12:14:02;;;;;;;5.00;4.60;;;;;;;;;;5095514;28;20203;-78
2023/08/01 12:16:29;;;;;;;5.82;5.38;;;;;;;;;;5091276;28;20196;-78
2023/08/01 12:18:55;;;;;;;4.97;4.55;;;;;;;;;;5103763;28;20192;-78
2023/08/01 12:21:22;;;;;;;4.65;4.35;;;;;;;;;;5101350;28;20206;-78
2023/08/01 12:23:50;;;;;;;5.22;4.82;;;;;;;;;;5110819;28;20654;-78
2023/08/01 12:26:19;;;;;;;5.88;5.38;;;;;;;;;;5111134;28;20211;-78
2023/08/01 12:28:46;;;;;;;5.18;4.72;;;;;;;;;;5110701;28;20192;-79
2023/08/01 12:31:17;;;;;;;4.95;4.55;;;;;;;;;;5099217;28;20220;-78
2023/08/01 12:33:44;;;;;;;4.70;4.30;;;;;;;;;;5090409;28;20280;-78
2023/08/01 12:36:11;;;;;;;7.70;5.45;;;;;;;;;;5091048;28;20200;-79
2023/08/01 12:38:37;;;;;;;5.20;4.80;;;;;;;;;;5090439;28;20246;-78
2023/08/01 12:41:06;;;;;;;5.65;5.10;;;;;;;;;;5101553;28;20204;-78
2023/08/01 12:43:33;;;;;;;4.40;4.10;;;;;;;;;;5097012;28;20191;-78
2023/08/01 12:46:00;;;;;;;5.15;4.68;;;;;;;;;;5098173;28;20670;-79
2023/08/01 12:48:27;;;;;;;5.03;4.57;;;;;;;;;;5098032;28;20199;-78
2023/08/01 12:50:54;;;;;;;5.25;4.78;;;;;;;;;;5096139;28;20223;-79
2023/08/01 12:53:21;;;;;;;4.80;4.40;;;;;;;;;;5098538;28;20223;-79
2023/08/01 12:55:49;;;;;;;4.93;4.50;;;;;;;;;;5114693;28;20277;-79
2023/08/01 12:58:19;;;;;;;5.20;4.80;;;;;;;;;;5114915;28;20199;-78
2023/08/01 13:00:46;;;;;;;4.47;4.18;;;;;;;;;;5111955;28;20207;-79
2023/08/01 13:03:13;;;;;;;5.25;4.75;;;;;;;;;;5103676;28;20199;-78
2023/08/01 13:05:42;;;;;;;5.03;4.60;;;;;;;;;;5098537;28;20211;-79
2023/08/01 13:08:09;;;;;;;4.82;4.32;;;;;;;;;;5105209;28;20670;-78
2023/08/01 13:10:37;;;;;;;4.28;3.97;;;;;;;;;;5107702;28;20212;-78
2023/08/01 13:13:04;;;;;;;4.72;4.03;;;;;;;;;;5102779;28;20199;-79
2023/08/01 13:15:34;;;;;;;4.82;4.43;;;;;;;;;;5096329;28;20728;-78
2023/08/01 13:18:01;;;;;;;8.57;5.03;;;;;;;;;;5093931;28;20204;-78
2023/08/01 13:20:28;;;;;;;5.10;4.63;;;;;;;;;;5094123;28;20635;-78
2023/08/01 13:22:58;;;;;;;4.70;4.30;;;;;;;;;;5093626;28;20200;-78
2023/08/01 13:25:27;;;;;;;4.25;3.95;;;;;;;;;;5108508;28;20196;-78
2023/08/01 13:27:53;;;;;;;4.90;4.50;;;;;;;;;;5107457;28;20200;-78
2023/08/01 13:30:20;;;;;;;6.60;4.43;;;;;;;;;;5094786;28;20246;-79
2023/08/01 13:32:48;;;;;;;6.00;4.93;;;;;;;;;;5107125;28;20196;-79
2023/08/01 13:35:15;;;;;;;5.93;4.35;;;;;;;;;;5093669;28;20204;-79
2023/08/01 13:37:42;;;;;;;5.57;5.18;;;;;;;;;;5094618;28;20200;-78
2023/08/01 13:40:11;;;;;;;4.82;4.40;;;;;;;;;;5113798;28;20188;-79
2023/08/01 13:42:38;;;;;;;5.00;4.60;;;;;;;;;;5099850;28;20577;-79
2023/08/01 13:45:06;;;;;;;4.90;4.50;;;;;;;;;;5105416;28;20254;-78
2023/08/01 13:47:33;;;;;;;5.22;4.07;;;;;;;;;;5105587;28;20655;-80
2023/08/01 13:50:01;;;;;;;4.38;3.97;;;;;;;;;;5113938;28;20199;-78
2023/08/01 13:52:28;;;;;;;4.53;4.13;;;;;;;;;;5101441;28;20227;-79
2023/08/01 13:54:55;;;;;;;4.70;4.40;;;;;;;;;;5113228;28;20619;-78
2023/08/01 13:57:23;;;;;;;4.85;4.45;;;;;;;;;;5099402;28;20203;-79
2023/08/01 13:59:50;;;;;;;4.72;4.32;;;;;;;;;;5105915;28;20292;-78
2023/08/01 14:02:17;;;;;;;5.00;4.60;;;;;;;;;;5093917;28;20650;-78
2023/08/01 14:04:44;;;;;;;9.75;4.32;;;;;;;;;;5105600;28;20188;-78
2023/08/01 14:07:13;;;;;;;4.53;4.22;;;;;;;;;;5105423;28;20669;-78
2023/08/01 14:09:39;;;;;;;4.60;3.83;;;;;;;;;;5114259;28;20192;-78
2023/08/01 14:12:07;;;;;;;4.30;4.00;;;;;;;;;;5113974;28;20223;-78
2023/08/01 14:14:34;;;;;;;4.60;4.25;;;;;;;;;;5100742;28;20200;-77
2023/08/01 14:17:01;;;;;;;4.50;4.20;;;;;;;;;;5094116;28;20212;-77
2023/08/01 14:19:29;;;;;;;4.70;4.15;;;;;;;;;;5093868;28;20188;-77
2023/08/01 14:21:57;;;;;;;4.82;4.43;;;;;;;;;;5075112;28;20204;-78
2023/08/01 14:24:27;;;;;;;4.50;4.20;;;;;;;;;;5074900;28;20200;-78
2023/08/01 14:26:54;;;;;;;4.97;4.60;;;;;;;;;;5075833;28;20215;-77
2023/08/01 14:29:22;;;;;;;5.38;4.35;;;;;;;;;;5091807;28;20200;-77
2023/08/01 14:31:49;;;;;;;4.57;4.18;;;;;;;;;;5113651;28;20586;-77
2023/08/01 14:34:17;;;;;;;4.43;4.13;;;;;;;;;;5078872;28;20202;-79
2023/08/01 14:36:45;;;;;;;4.78;4.38;;;;;;;;;;5079080;28;20203;-80
2023/08/01 14:39:12;;;;;;;5.03;4.63;;;;;;;;;;5095868;28;20204;-79
2023/08/01 14:41:40;;;;;;;4.53;4.15;;;;;;;;;;5095413;28;20206;-80
2023/08/01 14:44:07;;;;;;;4.50;4.15;;;;;;;;;;5095570;28;20204;-79
2023/08/01 14:46:37;;;;;;;4.45;4.03;;;;;;;;;;5095328;28;20191;-80